Time;durP1;ratioP1;P1;durP2;ratioP2;P2;SDS_P1;SDS_P2;PMS_P1;PMS_P2;Temp;Humidity;BMP_temperature;BMP_pressure;BME280_temperature;BME280_humidity;BME280_pressure;Samples;Min_cycle;Max_cycle;Signal;HPM_P1;HPM_P2
2023/01/09 00:00:20;;;;;;;20.30;7.57;;;;;;;-5.27;100.00;99781.56;5137886;28;20127;-61
2023/01/09 00:02:46;;;;;;;26.08;9.68;;;;;;;-5.50;100.00;99782.59;5137468;28;20047;-63
2023/01/09 00:05:14;;;;;;;20.17;8.90;;;;;;;-5.33;100.00;99769.22;5137706;27;20047;-64
2023/01/09 00:07:40;;;;;;;27.70;10.93;;;;;;;-5.19;100.00;99769.69;5137582;28;20055;-62
2023/01/09 00:10:08;;;;;;;18.38;8.93;;;;;;;-5.26;100.00;99785.88;5137701;28;20051;-65
2023/01/09 00:12:34;;;;;;;19.98;8.43;;;;;;;-5.26;100.00;99785.88;5137387;28;20057;-63
2023/01/09 00:15:01;;;;;;;20.02;7.85;;;;;;;-5.18;100.00;99779.31;5141013;28;20073;-64
2023/01/09 00:17:28;;;;;;;24.52;9.95;;;;;;;-5.23;100.00;99803.31;5141141;28;20427;-59
2023/01/09 00:19:54;;;;;;;22.48;8.80;;;;;;;-5.26;100.00;99798.44;5137586;28;20051;-64
2023/01/09 00:22:20;;;;;;;19.95;10.02;;;;;;;-5.23;100.00;99798.75;5137642;28;20054;-60
2023/01/09 00:24:46;;;;;;;19.48;10.10;;;;;;;-5.33;100.00;99795.09;5136780;27;20050;-65
2023/01/09 00:27:13;;;;;;;26.58;10.23;;;;;;;-5.21;100.00;99793.16;5137333;28;20062;-61
2023/01/09 00:29:40;;;;;;;26.80;10.20;;;;;;;-5.14;100.00;99782.28;5137408;28;20051;-60
2023/01/09 00:32:09;;;;;;;32.30;11.43;;;;;;;-5.06;100.00;99774.66;5137359;27;20420;-62
2023/01/09 00:34:36;;;;;;;28.88;11.05;;;;;;;-5.37;100.00;99780.63;5137413;28;20175;-62
2023/01/09 00:37:03;;;;;;;22.13;9.07;;;;;;;-5.19;100.00;99780.38;5137303;28;20293;-65
2023/01/09 00:39:29;;;;;;;15.73;7.75;;;;;;;-5.22;100.00;99770.16;5137093;28;20055;-61
2023/01/09 00:41:57;;;;;;;22.70;9.93;;;;;;;-5.24;100.00;99770.41;5119470;28;20086;-63
2023/01/09 00:44:28;;;;;;;25.35;11.20;;;;;;;-5.12;100.00;99764.16;5137055;28;20069;-61
2023/01/09 00:46:58;;;;;;;30.27;11.45;;;;;;;-5.03;100.00;99776.84;5137488;28;20416;-63
2023/01/09 00:49:27;;;;;;;24.83;11.02;;;;;;;-4.98;100.00;99771.56;5137350;28;20146;-63
2023/01/09 00:51:55;;;;;;;23.48;9.40;;;;;;;-4.89;100.00;99776.50;5136927;28;20421;-62
2023/01/09 00:54:22;;;;;;;22.98;9.18;;;;;;;-5.22;100.00;99772.84;5137067;28;20499;-63
2023/01/09 00:56:49;;;;;;;30.63;11.35;;;;;;;-5.12;100.00;99766.81;5136809;28;20059;-62
2023/01/09 00:59:15;;;;;;;16.15;8.02;;;;;;;-5.12;100.00;99767.63;5137291;28;20116;-63
2023/01/09 01:01:42;;;;;;;12.52;7.78;;;;;;;-5.14;100.00;99774.28;5136984;28;20061;-65
2023/01/09 01:09:34;;;;;;;20.33;9.57;;;;;;;-5.15;100.00;99772.66;5136820;28;20085;-62
2023/01/09 01:12:01;;;;;;;22.80;10.02;;;;;;;-5.01;100.00;99753.31;5136730;28;20107;-65
2023/01/09 01:14:32;;;;;;;24.77;9.30;;;;;;;-4.90;100.00;99745.44;5136667;28;20047;-65
2023/01/09 01:16:59;;;;;;;17.92;8.25;;;;;;;-5.27;100.00;99754.84;5136926;27;20367;-64
2023/01/09 01:19:25;;;;;;;18.20;8.85;;;;;;;-5.09;100.00;99745.75;5136794;28;20055;-65
2023/01/09 01:21:51;;;;;;;20.60;9.38;;;;;;;-4.93;100.00;99744.09;5137012;28;20324;-62
2023/01/09 01:24:18;;;;;;;23.90;8.90;;;;;;;-5.21;100.00;99751.19;5136483;28;20049;-65
2023/01/09 01:26:45;;;;;;;21.95;8.98;;;;;;;-5.08;100.00;99741.22;5136990;28;20047;-63
2023/01/09 01:29:12;;;;;;;22.88;9.38;;;;;;;-4.92;100.00;99737.66;5136533;28;20047;-61
2023/01/09 01:31:38;;;;;;;16.42;7.82;;;;;;;-5.01;100.00;99733.81;5136881;28;20100;-62
2023/01/09 01:34:05;;;;;;;18.10;7.65;;;;;;;-5.14;100.00;99734.97;5136387;28;20142;-64
2023/01/09 01:36:32;;;;;;;17.13;9.00;;;;;;;-5.37;100.00;99736.00;5136276;27;20101;-61
2023/01/09 01:38:58;;;;;;;21.80;9.15;;;;;;;-5.13;100.00;99719.75;5140217;27;20062;-65
2023/01/09 01:41:28;;;;;;;19.77;7.82;;;;;;;-5.10;100.00;99716.56;5140084;28;20118;-61
2023/01/09 01:43:57;;;;;;;26.60;9.65;;;;;;;-5.13;100.00;99717.91;5139974;28;20047;-63
2023/01/09 01:46:23;;;;;;;23.42;10.60;;;;;;;-5.06;100.00;99725.75;5139802;28;20051;-61
2023/01/09 01:48:53;;;;;;;22.27;9.93;;;;;;;-5.15;100.00;99725.34;5140134;28;20062;-62
2023/01/09 01:51:21;;;;;;;22.27;9.25;;;;;;;-5.11;100.00;99718.44;5139652;28;20054;-64
2023/01/09 01:53:51;;;;;;;25.85;9.95;;;;;;;-5.10;100.00;99721.91;5140035;28;20142;-62
2023/01/09 01:56:20;;;;;;;38.50;10.50;;;;;;;-5.21;100.00;99726.34;5139506;28;20464;-61
2023/01/09 01:58:52;;;;;;;20.55;9.55;;;;;;;-5.16;100.00;99729.09;5140032;27;20545;-65
2023/01/09 02:01:21;;;;;;;24.02;9.30;;;;;;;-5.24;100.00;99730.31;5139463;28;20055;-65
2023/01/09 02:03:49;;;;;;;36.30;13.93;;;;;;;-5.12;100.00;99732.88;5139674;28;20050;-62
2023/01/09 02:06:15;;;;;;;24.50;10.32;;;;;;;-4.93;100.00;99733.38;5139765;28;20047;-63
2023/01/09 02:08:42;;;;;;;19.40;7.72;;;;;;;-5.38;100.00;99726.38;5139621;28;20416;-65
2023/01/09 02:11:11;;;;;;;27.83;10.88;;;;;;;-5.02;100.00;99724.19;5139725;28;20051;-62
2023/01/09 02:13:39;;;;;;;24.80;7.93;;;;;;;-5.39;100.00;99718.63;5139285;28;20141;-63
2023/01/09 02:16:34;;;;;;;15.77;8.38;;;;;;;-5.02;100.00;99719.63;5139559;28;20054;-63
2023/01/09 02:19:13;;;;;;;23.02;9.68;;;;;;;-5.01;100.00;99707.88;5139655;28;20143;-65
2023/01/09 02:21:50;;;;;;;29.17;10.38;;;;;;;-5.17;100.00;99695.38;5139498;28;20123;-61
2023/01/09 02:24:35;;;;;;;19.92;8.25;;;;;;;-5.09;100.00;99684.25;5139291;28;20051;-64
2023/01/09 02:27:16;;;;;;;23.17;8.98;;;;;;;-5.09;100.00;99681.59;5139069;28;20090;-65
2023/01/09 02:30:32;;;;;;;18.25;8.77;;;;;;;-4.81;100.00;99672.53;5139403;28;20396;-66
2023/01/09 02:33:08;;;;;;;22.30;9.90;;;;;;;-5.21;100.00;99654.16;5139007;28;20484;-64
2023/01/09 02:35:49;;;;;;;22.52;8.45;;;;;;;-5.27;100.00;99663.97;5139172;28;20044;-66
2023/01/09 02:38:23;;;;;;;23.58;8.70;;;;;;;-5.04;100.00;99659.44;5139274;27;20086;-61
2023/01/09 02:40:58;;;;;;;24.20;9.80;;;;;;;-5.14;100.00;99632.59;5138929;28;20047;-61
2023/01/09 02:43:26;;;;;;;20.70;7.70;;;;;;;-5.38;100.00;99656.09;5139374;28;20078;-63
2023/01/09 02:45:52;;;;;;;32.60;10.50;;;;;;;-5.39;100.00;99635.78;5138795;28;20058;-63
2023/01/09 02:48:19;;;;;;;20.42;8.55;;;;;;;-5.10;100.00;99639.03;5139058;27;20061;-64
2023/01/09 02:50:50;;;;;;;17.25;7.25;;;;;;;-5.10;100.00;99644.38;5138715;28;20062;-62
2023/01/09 02:53:53;;;;;;;18.65;9.65;;;;;;;-4.96;100.00;99640.28;5138932;28;20054;-62
2023/01/09 02:56:43;;;;;;;16.20;7.53;;;;;;;-5.42;100.00;99620.25;5138834;27;20090;-63
2023/01/09 02:59:23;;;;;;;22.23;9.07;;;;;;;-5.39;100.00;99625.91;5138666;28;20148;-64
2023/01/09 03:02:02;;;;;;;22.08;8.95;;;;;;;-5.32;100.00;99602.47;5139015;27;20416;-62
2023/01/09 03:04:42;;;;;;;23.80;9.15;;;;;;;-5.20;100.00;99604.97;5138778;28;20099;-64
2023/01/09 03:07:16;;;;;;;21.73;8.13;;;;;;;-5.38;100.00;99590.09;5138484;28;20062;-65
2023/01/09 03:09:47;;;;;;;17.67;7.70;;;;;;;-5.26;100.00;99606.00;5138795;28;20133;-62
2023/01/09 03:12:18;;;;;;;26.08;8.60;;;;;;;-5.34;100.00;99593.88;5138492;28;20058;-60
2023/01/09 03:14:48;;;;;;;19.60;7.40;;;;;;;-5.36;100.00;99608.56;5138808;27;20043;-61
2023/01/09 03:17:19;;;;;;;19.42;8.32;;;;;;;-5.23;100.00;99597.50;5138553;28;20050;-64
2023/01/09 03:19:48;;;;;;;20.25;8.45;;;;;;;-5.21;100.00;99593.50;5138903;28;20050;-62
2023/01/09 03:22:14;;;;;;;22.00;8.25;;;;;;;-5.09;100.00;99590.69;5138193;27;20051;-64
2023/01/09 03:24:40;;;;;;;21.30;10.13;;;;;;;-5.40;100.00;99578.84;5138212;28;20055;-62
2023/01/09 03:27:07;;;;;;;26.67;10.05;;;;;;;-5.38;100.00;99587.41;5138509;28;20059;-64
2023/01/09 03:29:34;;;;;;;16.27;7.45;;;;;;;-5.50;100.00;99570.69;5138377;28;20473;-62
2023/01/09 03:32:00;;;;;;;26.20;9.48;;;;;;;-5.42;100.00;99572.94;5138418;28;20077;-65
2023/01/09 03:34:26;;;;;;;17.13;8.35;;;;;;;-5.25;100.00;99581.69;5138192;28;20047;-62
2023/01/09 03:36:53;;;;;;;20.08;8.27;;;;;;;-5.38;100.00;99573.25;5138359;28;20356;-64
2023/01/09 03:39:19;;;;;;;19.08;9.10;;;;;;;-5.11;100.00;99581.28;5138183;28;20043;-65
2023/01/09 03:41:45;;;;;;;25.00;8.63;;;;;;;-5.58;100.00;99568.47;5138302;28;20047;-63
2023/01/09 03:44:12;;;;;;;18.80;9.38;;;;;;;-5.19;100.00;99568.41;5138108;28;20047;-65
2023/01/09 03:46:38;;;;;;;20.92;7.72;;;;;;;-5.23;100.00;99549.38;5138360;28;20055;-61
2023/01/09 03:49:04;;;;;;;19.90;7.57;;;;;;;-5.69;100.00;99540.84;5138482;28;20138;-61
2023/01/09 03:51:30;;;;;;;22.58;8.55;;;;;;;-5.39;100.00;99561.75;5142232;28;20130;-61
2023/01/09 03:53:57;;;;;;;18.95;8.68;;;;;;;-5.34;100.00;99553.78;5140834;28;20061;-65
2023/01/09 03:56:24;;;;;;;23.75;10.25;;;;;;;-5.19;100.00;99555.84;5137980;28;20120;-61
2023/01/09 03:58:52;;;;;;;15.73;7.40;;;;;;;-5.51;100.00;99542.38;5137791;27;20051;-61
2023/01/09 04:01:18;;;;;;;18.58;8.48;;;;;;;-5.36;100.00;99549.78;5137102;27;20043;-62
2023/01/09 04:03:44;;;;;;;26.92;8.65;;;;;;;-5.58;100.00;99541.78;5137698;27;20138;-63
2023/01/09 04:06:10;;;;;;;16.45;6.82;;;;;;;-5.55;100.00;99534.06;5137634;28;20093;-63
2023/01/09 04:08:37;;;;;;;21.13;8.93;;;;;;;-5.45;100.00;99541.38;5137990;28;20073;-63
2023/01/09 04:11:04;;;;;;;22.02;8.15;;;;;;;-5.69;100.00;99544.31;5137408;28;20078;-65
2023/01/09 04:13:30;;;;;;;21.02;8.82;;;;;;;-5.50;100.00;99541.31;5137889;27;20051;-63
2023/01/09 04:15:56;;;;;;;15.80;6.68;;;;;;;-5.66;100.00;99537.69;5137395;28;20050;-65
2023/01/09 04:18:23;;;;;;;24.05;9.05;;;;;;;-5.65;100.00;99551.84;5137774;27;20054;-63
2023/01/09 04:20:49;;;;;;;17.23;8.82;;;;;;;-5.68;100.00;99561.16;5137540;27;20149;-63
2023/01/09 04:23:15;;;;;;;24.65;8.68;;;;;;;-5.59;100.00;99554.31;5137420;28;20203;-64
2023/01/09 04:25:42;;;;;;;17.48;8.35;;;;;;;-5.70;100.00;99540.03;5137301;28;20466;-61
2023/01/09 04:28:09;;;;;;;15.50;7.22;;;;;;;-5.60;100.00;99541.19;5137268;28;20061;-65
2023/01/09 04:30:35;;;;;;;21.95;9.10;;;;;;;-5.28;100.00;99539.44;5137111;28;20089;-62
2023/01/09 04:33:01;;;;;;;18.92;7.38;;;;;;;-5.55;100.00;99512.69;5137072;28;20043;-65
2023/01/09 04:35:27;;;;;;;28.30;8.95;;;;;;;-5.62;100.00;99511.28;5137556;28;20051;-61
2023/01/09 04:37:53;;;;;;;20.73;8.13;;;;;;;-5.77;100.00;99527.91;5136967;28;20140;-65
2023/01/09 04:40:20;;;;;;;20.52;9.13;;;;;;;-5.66;100.00;99537.69;5137334;28;20099;-60
2023/01/09 04:42:46;;;;;;;32.60;10.45;;;;;;;-5.56;100.00;99539.66;5136818;28;20401;-65
2023/01/09 04:45:16;;;;;;;36.13;9.82;;;;;;;-5.57;100.00;99543.38;5137293;27;20047;-64
2023/01/09 04:47:42;;;;;;;19.75;7.88;;;;;;;-5.92;100.00;99509.84;5136726;28;20150;-65
2023/01/09 04:50:10;;;;;;;23.83;9.38;;;;;;;-5.62;100.00;99535.31;5136693;28;20483;-65
2023/01/09 04:52:36;;;;;;;25.63;9.00;;;;;;;-5.70;100.00;99531.19;5137090;28;20293;-61
2023/01/09 04:55:04;;;;;;;18.70;9.35;;;;;;;-5.71;100.00;99527.72;5136972;28;20077;-63
2023/01/09 04:57:30;;;;;;;19.70;8.50;;;;;;;-5.78;100.00;99529.78;5136760;28;20084;-63
2023/01/09 04:59:56;;;;;;;20.67;9.07;;;;;;;-5.54;100.00;99538.34;5136699;28;20130;-64
2023/01/09 05:02:24;;;;;;;22.08;9.48;;;;;;;-5.40;100.00;99532.59;5136581;27;20047;-63
2023/01/09 05:04:50;;;;;;;29.35;10.05;;;;;;;-5.72;100.00;99528.78;5136738;28;20059;-63
2023/01/09 05:07:16;;;;;;;15.50;7.20;;;;;;;-5.69;100.00;99519.47;5136843;28;20086;-63
2023/01/09 05:09:43;;;;;;;26.35;10.02;;;;;;;-5.56;100.00;99511.09;5136633;28;20051;-59
2023/01/09 05:12:10;;;;;;;25.63;7.85;;;;;;;-5.82;100.00;99509.97;5139487;27;20047;-62
2023/01/09 05:14:36;;;;;;;28.58;10.68;;;;;;;-5.72;100.00;99522.66;5140222;28;20062;-63
2023/01/09 05:17:02;;;;;;;24.20;10.55;;;;;;;-5.64;100.00;99538.22;5140437;28;20057;-62
2023/01/09 05:19:29;;;;;;;24.25;11.20;;;;;;;-5.73;100.00;99513.00;5140401;27;20115;-57
2023/01/09 05:21:55;;;;;;;27.48;9.57;;;;;;;-5.59;100.00;99519.59;5139981;28;20047;-63
2023/01/09 05:24:21;;;;;;;23.20;9.52;;;;;;;-5.85;100.00;99513.16;5140110;27;20442;-60
2023/01/09 05:26:48;;;;;;;21.52;9.18;;;;;;;-5.98;100.00;99525.03;5140022;28;20058;-62
2023/01/09 05:29:14;;;;;;;20.55;9.25;;;;;;;-5.96;100.00;99544.28;5140073;28;20357;-63
2023/01/09 05:31:40;;;;;;;27.33;8.52;;;;;;;-5.94;100.00;99546.69;5139909;28;20098;-61
2023/01/09 05:34:06;;;;;;;24.83;10.82;;;;;;;-5.75;100.00;99545.31;5140019;28;20047;-62
2023/01/09 05:36:33;;;;;;;22.45;9.77;;;;;;;-5.70;100.00;99539.22;5139766;28;20061;-59
2023/01/09 05:39:01;;;;;;;18.58;9.75;;;;;;;-5.78;100.00;99528.97;5140005;28;20043;-62
2023/01/09 05:41:27;;;;;;;19.50;9.63;;;;;;;-5.86;100.00;99524.06;5139604;28;20086;-57
2023/01/09 05:43:54;;;;;;;24.70;10.45;;;;;;;-5.58;100.00;99539.09;5140038;27;20063;-64
2023/01/09 05:46:20;;;;;;;19.30;8.00;;;;;;;-5.94;100.00;99522.66;5139487;28;20429;-63
2023/01/09 05:48:47;;;;;;;23.90;8.38;;;;;;;-5.83;100.00;99534.25;5139804;28;20387;-61
2023/01/09 05:51:13;;;;;;;24.08;9.00;;;;;;;-5.78;100.00;99540.47;5139890;27;20334;-62
2023/01/09 05:53:40;;;;;;;62.47;20.27;;;;;;;-5.73;100.00;99547.72;5139758;28;20340;-62
2023/01/09 05:56:06;;;;;;;26.08;9.02;;;;;;;-5.91;100.00;99552.31;5139797;27;20055;-66
2023/01/09 05:58:33;;;;;;;18.58;6.38;;;;;;;-6.15;100.00;99550.97;5139404;28;20059;-66
2023/01/09 06:00:59;;;;;;;25.58;9.63;;;;;;;-5.89;100.00;99557.41;5139584;27;20047;-62
2023/01/09 06:03:25;;;;;;;36.38;15.43;;;;;;;-5.88;100.00;99571.56;5139319;28;20051;-64
2023/01/09 06:05:51;;;;;;;31.98;12.85;;;;;;;-5.85;100.00;99569.22;5139880;28;20093;-60
2023/01/09 06:08:18;;;;;;;36.58;12.73;;;;;;;-5.74;100.00;99567.47;5139225;28;20051;-60
2023/01/09 06:10:46;;;;;;;29.08;10.60;;;;;;;-5.63;100.00;99573.75;5139618;28;20043;-63
2023/01/09 06:13:12;;;;;;;26.20;10.57;;;;;;;-6.02;100.00;99563.16;5139159;28;20439;-57
2023/01/09 06:15:39;;;;;;;24.77;10.30;;;;;;;-5.88;100.00;99568.91;5139270;28;20051;-69
2023/01/09 06:18:05;;;;;;;22.73;9.93;;;;;;;-6.10;100.00;99555.53;5138801;27;20349;-64
2023/01/09 06:20:32;;;;;;;37.10;14.02;;;;;;;-5.86;100.00;99567.59;5139072;28;20095;-58
2023/01/09 06:22:58;;;;;;;28.90;12.00;;;;;;;-5.82;100.00;99562.59;5138555;27;20057;-68
2023/01/09 06:25:24;;;;;;;27.95;11.00;;;;;;;-5.63;100.00;99557.72;5139043;28;20047;-60
2023/01/09 06:27:51;;;;;;;24.52;10.27;;;;;;;-5.75;100.00;99561.34;5139238;27;20059;-65
2023/01/09 06:30:18;;;;;;;21.08;8.90;;;;;;;-5.80;100.00;99561.25;5138947;28;20070;-60
2023/01/09 06:32:46;;;;;;;26.23;12.00;;;;;;;-5.75;100.00;99572.00;5139437;28;20051;-60
2023/01/09 06:35:12;;;;;;;35.75;15.35;;;;;;;-5.52;100.00;99567.50;5138615;28;20055;-60
2023/01/09 06:37:39;;;;;;;29.05;10.93;;;;;;;-5.63;100.00;99555.88;5138925;28;20047;-62
2023/01/09 06:40:06;;;;;;;26.42;11.45;;;;;;;-5.91;100.00;99546.97;5138695;28;20062;-62
2023/01/09 06:42:32;;;;;;;25.55;9.65;;;;;;;-5.82;100.00;99566.06;5139015;27;20392;-63
2023/01/09 06:44:59;;;;;;;17.48;7.95;;;;;;;-5.89;100.00;99556.63;5138696;28;20466;-62
2023/01/09 06:47:25;;;;;;;15.90;7.47;;;;;;;-5.82;100.00;99549.22;5138578;28;20051;-65
2023/01/09 06:49:51;;;;;;;31.20;9.50;;;;;;;-5.86;100.00;99554.25;5138736;27;20315;-61
2023/01/09 06:52:18;;;;;;;27.17;10.50;;;;;;;-5.71;100.00;99548.28;5138325;28;20405;-63
2023/01/09 06:54:44;;;;;;;21.30;8.68;;;;;;;-5.83;100.00;99539.59;5138703;27;20047;-62
2023/01/09 06:57:10;;;;;;;28.42;9.65;;;;;;;-5.79;100.00;99538.84;5138299;28;20061;-63
2023/01/09 06:59:36;;;;;;;28.25;10.30;;;;;;;-5.84;100.00;99543.31;5138809;27;20057;-62
2023/01/09 07:02:03;;;;;;;17.08;7.45;;;;;;;-5.75;100.00;99556.00;5138249;28;20360;-64
2023/01/09 07:04:30;;;;;;;26.35;11.98;;;;;;;-5.53;100.00;99560.50;5138582;28;20415;-63
2023/01/09 07:06:56;;;;;;;18.95;8.07;;;;;;;-5.91;100.00;99556.84;5138224;28;20057;-63
2023/01/09 07:09:22;;;;;;;26.83;10.48;;;;;;;-5.91;100.00;99563.00;5138650;27;20139;-62
2023/01/09 07:11:48;;;;;;;34.70;12.68;;;;;;;-5.83;100.00;99555.59;5137998;28;20073;-64
2023/01/09 07:14:15;;;;;;;31.75;11.77;;;;;;;-5.84;100.00;99564.69;5138271;28;20308;-60
2023/01/09 07:16:41;;;;;;;32.88;10.15;;;;;;;-5.63;100.00;99566.56;5137893;28;20058;-62
2023/01/09 07:19:08;;;;;;;19.67;8.73;;;;;;;-5.64;100.00;99562.25;5137972;28;20047;-60
2023/01/09 07:21:34;;;;;;;35.38;12.00;;;;;;;-5.77;100.00;99560.75;5138323;28;20089;-60
2023/01/09 07:24:00;;;;;;;22.75;8.38;;;;;;;-5.96;100.00;99562.97;5137983;28;20051;-60
2023/01/09 07:26:26;;;;;;;19.35;8.32;;;;;;;-5.84;100.00;99554.81;5138521;27;20051;-62
2023/01/09 07:28:53;;;;;;;32.78;12.07;;;;;;;-5.65;100.00;99571.34;5137893;28;20054;-60
2023/01/09 07:31:19;;;;;;;25.15;10.50;;;;;;;-5.75;100.00;99561.34;5138220;28;20042;-63
2023/01/09 07:33:46;;;;;;;28.63;10.07;;;;;;;-5.71;100.00;99565.13;5137815;27;20055;-59
2023/01/09 07:36:13;;;;;;;31.77;13.02;;;;;;;-5.53;100.00;99561.34;5137252;27;20361;-62
2023/01/09 07:38:39;;;;;;;27.15;12.18;;;;;;;-5.60;100.00;99573.25;5137595;28;20055;-63
2023/01/09 07:41:05;;;;;;;28.58;11.50;;;;;;;-5.54;100.00;99575.75;5138063;27;20054;-61
2023/01/09 07:43:32;;;;;;;18.40;8.77;;;;;;;-5.74;100.00;99568.28;5137715;27;20051;-60
2023/01/09 07:45:58;;;;;;;32.13;11.70;;;;;;;-5.41;100.00;99571.88;5137562;28;20118;-62
2023/01/09 07:48:24;;;;;;;20.70;7.30;;;;;;;-5.54;100.00;99564.25;5137596;27;20057;-59
2023/01/09 07:50:50;;;;;;;29.58;11.02;;;;;;;-5.75;100.00;99557.88;5137782;28;20145;-61
2023/01/09 07:53:17;;;;;;;24.23;10.52;;;;;;;-5.69;100.00;99559.53;5137834;28;20057;-62
2023/01/09 07:55:43;;;;;;;33.10;10.57;;;;;;;-5.51;100.00;99569.91;5137451;28;20108;-61
2023/01/09 07:58:10;;;;;;;33.78;11.90;;;;;;;-5.56;100.00;99564.50;5137711;28;20051;-63
2023/01/09 08:00:36;;;;;;;20.58;10.02;;;;;;;-5.78;100.00;99561.81;5137410;28;20047;-63
2023/01/09 08:03:03;;;;;;;18.48;8.02;;;;;;;-5.87;100.00;99565.16;5137832;28;20127;-59
2023/01/09 08:05:29;;;;;;;29.98;10.52;;;;;;;-5.69;100.00;99563.03;5137408;28;20373;-61
2023/01/09 08:07:55;;;;;;;28.73;11.10;;;;;;;-5.69;100.00;99568.34;5137847;28;20059;-64
2023/01/09 08:10:22;;;;;;;38.60;12.57;;;;;;;-5.61;100.00;99566.31;5137434;27;20051;-60
2023/01/09 08:12:49;;;;;;;22.55;10.90;;;;;;;-5.70;100.00;99556.06;5137578;28;20677;-64
2023/01/09 08:15:16;;;;;;;30.30;10.82;;;;;;;-5.55;100.00;99549.28;5137555;28;20089;-63
2023/01/09 08:17:44;;;;;;;28.85;9.93;;;;;;;-5.55;100.00;99555.44;5137155;28;20051;-62
2023/01/09 08:20:12;;;;;;;22.50;8.75;;;;;;;-5.79;100.00;99527.38;5137220;28;20403;-60
2023/01/09 08:22:38;;;;;;;24.70;9.80;;;;;;;-5.97;100.00;99539.97;5137211;28;20310;-61
2023/01/09 08:25:05;;;;;;;24.85;9.98;;;;;;;-5.82;100.00;99550.03;5137367;27;20082;-64
2023/01/09 08:27:32;;;;;;;19.42;7.38;;;;;;;-5.95;100.00;99556.56;5136970;28;20393;-59
2023/01/09 08:29:58;;;;;;;28.02;11.45;;;;;;;-5.80;100.00;99558.59;5137390;28;20061;-63
2023/01/09 08:32:25;;;;;;;17.90;8.68;;;;;;;-5.81;100.00;99554.31;5136913;28;20055;-61
2023/01/09 08:34:51;;;;;;;34.85;12.43;;;;;;;-5.52;100.00;99559.47;5137265;27;20093;-63
2023/01/09 08:37:17;;;;;;;36.15;14.23;;;;;;;-5.52;100.00;99549.59;5136728;28;20155;-63
2023/01/09 08:39:44;;;;;;;26.27;11.63;;;;;;;-5.59;100.00;99543.63;5137039;28;20335;-60
2023/01/09 08:47:39;;;;;;;28.23;11.45;;;;;;;-5.63;100.00;99541.69;5140108;27;20050;-58
2023/01/09 08:50:06;;;;;;;23.75;9.82;;;;;;;-5.52;100.00;99541.56;5140730;28;20062;-61
2023/01/09 08:52:32;;;;;;;32.55;11.02;;;;;;;-5.60;100.00;99539.31;5140892;27;20062;-62
2023/01/09 08:54:58;;;;;;;45.55;16.73;;;;;;;-5.48;100.00;99533.88;5140487;28;20047;-64
2023/01/09 08:57:25;;;;;;;24.30;9.38;;;;;;;-5.67;100.00;99528.03;5140917;27;20051;-59
2023/01/09 08:59:51;;;;;;;27.80;9.65;;;;;;;-5.78;100.00;99520.97;5140353;27;20051;-63
2023/01/09 09:02:18;;;;;;;34.70;12.98;;;;;;;-5.70;100.00;99532.03;5140101;28;20188;-62
2023/01/09 09:04:45;;;;;;;18.63;8.05;;;;;;;-5.87;100.00;99530.47;5140167;28;20054;-63
2023/01/09 09:07:11;;;;;;;23.63;10.65;;;;;;;-5.95;100.00;99532.53;5140096;28;20404;-60
2023/01/09 09:09:37;;;;;;;27.08;10.75;;;;;;;-5.92;100.00;99524.00;5140537;27;20107;-62
2023/01/09 09:12:04;;;;;;;30.30;10.88;;;;;;;-5.72;100.00;99517.31;5140114;28;20373;-61
2023/01/09 09:17:15;;;;;;;41.60;17.65;;;;;;;-5.55;100.00;99520.69;5140484;28;20442;-62
2023/01/09 09:19:42;;;;;;;46.38;20.48;;;;;;;-5.54;100.00;99518.84;5140305;28;20047;-66
2023/01/09 09:22:08;;;;;;;61.97;24.17;;;;;;;-5.71;100.00;99517.03;5139852;28;20047;-62
2023/01/09 09:24:34;;;;;;;31.63;14.07;;;;;;;-5.71;100.00;99514.38;5140597;27;20137;-65
2023/01/09 09:27:01;;;;;;;20.33;9.45;;;;;;;-5.87;100.00;99499.22;5139879;28;20123;-64
2023/01/09 09:29:27;;;;;;;31.85;13.18;;;;;;;-5.52;100.00;99496.16;5140548;28;20051;-73
2023/01/09 09:31:53;;;;;;;32.08;12.98;;;;;;;-5.85;100.00;99490.97;5140055;27;20047;-65
2023/01/09 09:34:19;;;;;;;37.35;15.50;;;;;;;-5.76;100.00;99482.28;5139819;28;20047;-70
2023/01/09 09:36:46;;;;;;;40.42;14.82;;;;;;;-5.78;100.00;99483.59;5140113;27;20051;-65
2023/01/09 09:39:12;;;;;;;43.50;13.45;;;;;;;-5.78;100.00;99473.69;5139882;28;20078;-68
2023/01/09 09:45:15;;;;;;;32.58;14.38;;;;;;;-5.68;100.00;99457.00;5108585;27;20051;-64
2023/01/09 09:47:52;;;;;;;21.35;9.32;;;;;;;-5.74;100.00;99457.97;5139939;28;20050;-61
2023/01/09 09:50:55;;;;;;;20.17;8.43;;;;;;;-5.80;100.00;99448.31;5139943;28;20074;-69
2023/01/09 09:53:28;;;;;;;18.67;9.43;;;;;;;-5.84;100.00;99439.19;5139230;28;20050;-69
2023/01/09 09:55:56;;;;;;;26.08;10.30;;;;;;;-5.88;100.00;99441.56;5139988;27;20110;-67
2023/01/09 09:58:27;;;;;;;23.38;10.77;;;;;;;-5.62;100.00;99426.59;5138272;27;20087;-61
2023/01/09 10:00:55;;;;;;;28.73;10.30;;;;;;;-5.86;100.00;99436.78;5139299;28;20435;-68
2023/01/09 10:03:27;;;;;;;35.90;12.20;;;;;;;-5.73;100.00;99416.88;5139620;28;20073;-66
2023/01/09 10:05:54;;;;;;;28.20;11.93;;;;;;;-5.78;100.00;99416.81;5139613;28;20318;-61
2023/01/09 10:08:34;;;;;;;21.38;8.90;;;;;;;-5.50;100.00;99389.03;5139589;27;20055;-64
2023/01/09 10:11:01;;;;;;;20.05;9.63;;;;;;;-5.69;100.00;99404.63;5138795;28;20138;-65
2023/01/09 10:16:17;;;;;;;;;;;;;;;-5.58;100.00;99392.19;5139730;28;20046;-67
2023/01/09 10:18:56;;;;;;;23.10;10.70;;;;;;;-5.71;100.00;99393.38;5139140;28;20326;-68
2023/01/09 10:21:29;;;;;;;22.70;9.65;;;;;;;-5.69;100.00;99370.72;5139102;27;20134;-69
2023/01/09 10:24:26;;;;;;;22.20;8.50;;;;;;;-5.66;100.00;99372.09;5139319;28;20054;-64
2023/01/09 10:26:53;;;;;;;20.40;9.20;;;;;;;-5.71;100.00;99353.34;5138111;28;20134;-60
2023/01/09 10:29:37;;;;;;;28.85;11.68;;;;;;;-5.35;100.00;99346.41;5138738;28;20043;-65
2023/01/09 10:32:19;;;;;;;28.48;11.65;;;;;;;-5.65;100.00;99341.63;5139066;28;20419;-65
2023/01/09 10:34:55;;;;;;;14.25;6.55;;;;;;;-5.50;100.00;99343.63;5138520;27;20142;-67
2023/01/09 10:37:24;;;;;;;19.45;9.02;;;;;;;-5.37;100.00;99334.38;5138726;28;20106;-65
2023/01/09 10:39:56;;;;;;;17.67;7.68;;;;;;;-5.59;100.00;99343.31;5138694;28;20047;-62
2023/01/09 10:42:30;;;;;;;21.73;8.07;;;;;;;-5.70;100.00;99326.38;5138552;28;20047;-62
2023/01/09 10:45:02;;;;;;;26.83;10.65;;;;;;;-5.46;100.00;99318.84;5138960;27;20058;-56
2023/01/09 10:47:32;;;;;;;24.98;11.52;;;;;;;-5.15;100.00;99308.34;5138604;28;20335;-63
2023/01/09 10:50:01;;;;;;;24.30;10.43;;;;;;;-5.45;100.00;99312.41;5138900;28;20051;-61
2023/01/09 10:52:34;;;;;;;24.27;7.30;;;;;;;-5.55;100.00;99330.25;5138347;27;20051;-67
2023/01/09 10:55:13;;;;;;;26.92;10.55;;;;;;;-5.45;100.00;99295.59;5138591;28;20055;-65
2023/01/09 10:57:43;;;;;;;23.20;8.73;;;;;;;-5.48;100.00;99310.25;5140052;27;20047;-68
2023/01/09 11:00:18;;;;;;;12.48;6.97;;;;;;;-5.51;100.00;99301.94;5138913;28;20066;-60
2023/01/09 11:02:45;;;;;;;27.98;10.23;;;;;;;-5.47;100.00;99284.34;5138465;27;20058;-66
2023/01/09 11:05:15;;;;;;;33.45;11.80;;;;;;;-5.25;100.00;99277.00;5138189;28;20047;-64
2023/01/09 11:07:43;;;;;;;24.63;9.18;;;;;;;-5.41;100.00;99287.84;5138799;27;20332;-65
2023/01/09 11:10:12;;;;;;;26.08;10.52;;;;;;;-5.24;100.00;99277.81;5138043;27;20405;-62
2023/01/09 11:12:39;;;;;;;18.98;8.52;;;;;;;-5.46;100.00;99312.69;5138718;28;20423;-65
2023/01/09 11:15:29;;;;;;;24.63;9.38;;;;;;;-5.50;100.00;99293.69;5138075;27;20511;-62
2023/01/09 11:18:17;;;;;;;21.17;9.38;;;;;;;-5.34;100.00;99291.91;5134396;28;20150;-65
2023/01/09 11:20:44;;;;;;;27.67;11.98;;;;;;;-5.39;100.00;99278.53;5138231;28;20057;-66
2023/01/09 11:23:32;;;;;;;25.10;10.23;;;;;;;-5.47;100.00;99274.44;5138320;28;20138;-64
2023/01/09 11:26:01;;;;;;;21.25;8.15;;;;;;;-5.41;100.00;99272.63;5138886;27;20054;-65
2023/01/09 11:28:28;;;;;;;16.48;7.22;;;;;;;-5.45;100.00;99283.03;5138094;28;20086;-64
2023/01/09 11:30:58;;;;;;;27.92;12.30;;;;;;;-5.37;100.00;99286.28;5137993;28;20090;-70
2023/01/09 11:33:28;;;;;;;27.85;10.23;;;;;;;-5.45;100.00;99282.22;5138065;27;20328;-63
2023/01/09 11:36:09;;;;;;;34.15;14.82;;;;;;;-5.23;100.00;99279.44;5138151;28;20050;-63
2023/01/09 11:38:47;;;;;;;39.47;13.90;;;;;;;-5.22;100.00;99275.69;5138143;28;20054;-63
2023/01/09 11:41:18;;;;;;;30.23;12.32;;;;;;;-5.28;100.00;99272.19;5138148;28;20079;-64